createdAt,value
2018-05-24T00:01:18.435Z,97845.91
2018-05-24T00:03:45.954Z,97843.17
2018-05-24T00:06:13.947Z,97848.22
2018-05-24T00:08:41.916Z,97854.50
2018-05-24T00:11:09.483Z,97851.03
2018-05-24T00:13:37.022Z,97856.64
2018-05-24T00:16:05.593Z,97863.02
2018-05-24T00:18:33.061Z,97851.44
2018-05-24T00:21:00.555Z,97852.92
2018-05-24T00:23:28.025Z,97850.83
2018-05-24T00:25:55.573Z,97851.00
2018-05-24T00:28:24.134Z,97850.80
2018-05-24T00:30:51.624Z,97851.20
2018-05-24T00:33:19.672Z,97852.00
2018-05-24T00:35:47.217Z,97857.18
2018-05-24T00:38:14.754Z,97848.05
2018-05-24T00:40:43.057Z,97844.80
2018-05-24T00:43:10.701Z,97845.59
2018-05-24T00:45:38.155Z,97847.02
2018-05-24T00:48:05.966Z,97846.29
2018-05-24T00:50:33.560Z,97841.98
2018-05-24T00:53:01.039Z,97849.74
2018-05-24T00:55:40.159Z,97846.55
2018-05-24T00:58:08.316Z,97844.45
2018-05-24T01:00:35.710Z,97836.02
2018-05-24T01:03:03.209Z,97841.80
2018-05-24T01:05:30.724Z,97833.14
2018-05-24T01:07:58.322Z,97836.26
2018-05-24T01:10:25.808Z,97832.87
2018-05-24T01:12:53.280Z,97832.66
2018-05-24T01:15:20.756Z,97830.91
2018-05-24T01:17:48.227Z,97834.99
2018-05-24T01:20:15.732Z,97839.28
2018-05-24T01:22:43.190Z,97842.40
2018-05-24T01:25:10.687Z,97837.88
2018-05-24T01:27:38.177Z,97847.29
2018-05-24T01:30:05.693Z,97839.89
2018-05-24T01:32:33.156Z,97845.50
2018-05-24T01:35:00.628Z,97843.93
2018-05-24T01:37:40.018Z,97843.65
2018-05-24T01:40:07.537Z,97842.27
2018-05-24T01:42:34.988Z,97837.77
2018-05-24T01:45:02.470Z,97831.59
2018-05-24T01:47:29.929Z,97838.07
2018-05-24T01:49:57.513Z,97836.81
2018-05-24T01:52:24.998Z,97842.63
2018-05-24T01:54:52.502Z,97838.96
2018-05-24T01:57:19.994Z,97845.45
2018-05-24T01:59:48.313Z,97840.62
2018-05-24T02:02:15.799Z,97843.39
2018-05-24T02:04:43.336Z,97834.13
2018-05-24T02:07:10.929Z,97839.60
2018-05-24T02:09:38.403Z,97838.88
2018-05-24T02:12:05.882Z,97833.45
2018-05-24T02:14:33.356Z,97833.36
2018-05-24T02:17:00.827Z,97829.44
2018-05-24T02:19:28.409Z,97829.31
2018-05-24T02:21:55.893Z,97834.48
2018-05-24T02:24:23.355Z,97844.06
2018-05-24T02:26:50.883Z,97845.75
2018-05-24T02:29:18.433Z,97836.68
2018-05-24T02:31:45.983Z,97838.88
2018-05-24T02:34:13.443Z,97836.34
2018-05-24T02:36:40.957Z,97837.84
2018-05-24T02:39:08.457Z,97842.74
2018-05-24T02:41:35.939Z,97846.74
2018-05-24T02:44:03.401Z,97839.27
2018-05-24T02:46:30.872Z,97839.79
2018-05-24T02:48:58.359Z,97842.81
2018-05-24T02:51:25.944Z,97841.37
2018-05-24T02:53:53.426Z,97846.63
2018-05-24T02:56:21.053Z,97845.83
2018-05-24T02:58:48.416Z,97842.72
2018-05-24T03:01:15.890Z,97839.14
2018-05-24T03:03:43.461Z,97837.78
2018-05-24T03:06:10.988Z,97830.59
2018-05-24T03:08:38.549Z,97825.80
2018-05-24T03:11:06.034Z,97823.78
2018-05-24T03:13:33.564Z,97812.45
2018-05-24T03:16:01.015Z,97812.92
2018-05-24T03:18:28.511Z,97818.42
2018-05-24T03:20:55.952Z,97812.59
2018-05-24T03:23:23.505Z,97813.41
2018-05-24T03:25:50.981Z,97820.53
2018-05-24T03:28:18.920Z,97820.14
2018-05-24T03:30:47.512Z,97826.66
2018-05-24T03:33:15.062Z,97823.63
2018-05-24T03:35:42.636Z,97824.59
2018-05-24T03:38:10.088Z,97827.13
2018-05-24T03:40:37.557Z,97827.85
2018-05-24T03:43:05.007Z,97821.63
2018-05-24T03:45:32.547Z,97828.36
2018-05-24T03:48:00.022Z,97829.55
2018-05-24T03:50:27.502Z,97825.72
2018-05-24T03:52:55.595Z,97834.58
2018-05-24T03:55:23.113Z,97836.01
2018-05-24T03:57:51.091Z,97840.57
2018-05-24T04:00:30.499Z,97845.59
2018-05-24T04:03:09.873Z,97846.12
2018-05-24T04:05:37.381Z,97849.00
2018-05-24T04:08:04.867Z,97852.91
2018-05-24T04:10:33.221Z,97859.30
2018-05-24T04:13:00.706Z,97861.22
2018-05-24T04:15:28.163Z,97864.89
2018-05-24T04:17:55.636Z,97871.83
2018-05-24T04:20:23.114Z,97879.33
2018-05-24T04:22:50.590Z,97876.27
2018-05-24T04:25:18.093Z,97878.02
2018-05-24T04:27:45.581Z,97887.39
2018-05-24T04:30:13.125Z,97886.66
2018-05-24T04:32:40.675Z,97884.33
2018-05-24T04:35:08.201Z,97882.93
2018-05-24T04:37:35.690Z,97890.51
2018-05-24T04:40:03.187Z,97890.89
2018-05-24T04:42:30.781Z,97882.42
2018-05-24T04:44:58.258Z,97889.08
2018-05-24T04:47:27.318Z,97892.74
2018-05-24T04:49:54.814Z,97889.41
2018-05-24T04:52:22.773Z,97888.98
2018-05-24T04:54:51.059Z,97884.97
2018-05-24T04:57:18.618Z,97889.09
2018-05-24T04:59:46.166Z,97896.20
2018-05-24T05:02:13.645Z,97888.66
2018-05-24T05:04:41.232Z,97894.41
2018-05-24T05:07:08.720Z,97887.83
2018-05-24T05:09:36.211Z,97886.47
2018-05-24T05:12:04.512Z,97882.80
2018-05-24T05:14:32.381Z,97881.81
2018-05-24T05:16:59.815Z,97881.11
2018-05-24T05:19:27.452Z,97894.59
2018-05-24T05:21:54.954Z,97897.87
2018-05-24T05:24:22.442Z,97897.22
2018-05-24T05:26:49.964Z,97901.36
2018-05-24T05:29:17.524Z,97908.03
2018-05-24T05:31:45.674Z,97908.67
2018-05-24T05:34:13.148Z,97913.52
2018-05-24T05:36:40.631Z,97907.47
2018-05-24T05:39:09.179Z,97905.94
2018-05-24T05:41:36.647Z,97907.75
2018-05-24T05:44:04.112Z,97909.56
2018-05-24T05:46:31.703Z,97909.31
2018-05-24T05:48:59.509Z,97902.95
2018-05-24T05:51:30.541Z,97921.33
2018-05-24T05:53:58.010Z,97910.92
2018-05-24T05:56:25.520Z,97902.13
2018-05-24T05:58:53.026Z,97907.41
2018-05-24T06:01:21.182Z,97913.12
2018-05-24T06:03:48.718Z,97916.06
2018-05-24T06:06:16.256Z,97914.88
2018-05-24T06:08:43.790Z,97917.78
2018-05-24T06:11:11.301Z,97920.61
2018-05-24T06:13:38.793Z,97909.42
2018-05-24T06:16:06.241Z,97907.95
2018-05-24T06:18:33.833Z,97909.88
2018-05-24T06:21:01.487Z,97909.87
2018-05-24T06:23:29.321Z,97914.73
2018-05-24T06:25:57.238Z,97917.80
2018-05-24T06:28:24.885Z,97922.81
2018-05-24T06:30:52.251Z,97913.91
2018-05-24T06:33:19.802Z,97924.20
2018-05-24T06:35:48.462Z,97914.58
2018-05-24T06:38:17.278Z,97921.15
2018-05-24T06:40:44.791Z,97929.27
2018-05-24T06:43:12.307Z,97923.25
2018-05-24T06:45:39.880Z,97926.61
2018-05-24T06:48:07.817Z,97925.05
2018-05-24T06:50:35.361Z,97922.84
2018-05-24T06:53:02.851Z,97927.28
2018-05-24T06:55:30.318Z,97929.13
2018-05-24T06:57:57.802Z,97929.83
2018-05-24T07:00:25.311Z,97934.62
2018-05-24T07:02:52.825Z,97932.48
2018-05-24T07:05:20.322Z,97936.29
2018-05-24T07:07:47.804Z,97935.55
2018-05-24T07:10:15.293Z,97939.55
2018-05-24T07:12:42.898Z,97935.82
2018-05-24T07:15:10.420Z,97938.59
2018-05-24T07:17:37.929Z,97935.16
2018-05-24T07:20:05.414Z,97936.81
2018-05-24T07:22:32.948Z,97943.58
2018-05-24T07:25:00.436Z,97940.56
2018-05-24T07:27:27.998Z,97941.81
2018-05-24T07:29:55.451Z,97938.89
2018-05-24T07:32:23.081Z,97935.59
2018-05-24T07:34:50.553Z,97947.83
2018-05-24T07:37:18.007Z,97939.93
2018-05-24T07:39:46.264Z,97938.31
2018-05-24T07:42:13.751Z,97933.77
2018-05-24T07:44:41.341Z,97933.47
2018-05-24T07:47:08.916Z,97931.97
2018-05-24T07:49:36.418Z,97927.95
2018-05-24T07:52:03.935Z,97928.14
2018-05-24T07:54:31.497Z,97921.39
2018-05-24T07:56:59.016Z,97925.08
2018-05-24T07:59:26.492Z,97914.75
2018-05-24T08:01:53.983Z,97913.66
2018-05-24T08:04:21.470Z,97912.50
2018-05-24T08:06:48.981Z,97920.27
2018-05-24T08:09:16.766Z,97916.91
2018-05-24T08:11:44.245Z,97920.75
2018-05-24T08:14:12.570Z,97914.83
2018-05-24T08:16:40.192Z,97919.42
2018-05-24T08:19:07.812Z,97922.14
2018-05-24T08:21:35.342Z,97920.37
2018-05-24T08:24:02.865Z,97915.98
2018-05-24T08:26:30.516Z,97916.31
2018-05-24T08:28:58.008Z,97914.95
2018-05-24T08:31:25.477Z,97911.40
2018-05-24T08:33:52.956Z,97912.02
2018-05-24T08:36:20.541Z,97910.62
2018-05-24T08:38:48.026Z,97912.00
2018-05-24T08:41:15.584Z,97917.11
2018-05-24T08:43:43.074Z,97915.42
2018-05-24T08:46:11.339Z,97918.75
2018-05-24T08:48:38.884Z,97911.42
2018-05-24T08:51:06.929Z,97918.44
2018-05-24T08:53:34.405Z,97906.92
2018-05-24T08:56:02.032Z,97907.92
2018-05-24T08:58:29.533Z,97903.33
2018-05-24T09:00:57.002Z,97899.74
2018-05-24T09:03:26.319Z,97896.14
2018-05-24T09:05:53.896Z,97898.73
2018-05-24T09:08:21.423Z,97896.08
2018-05-24T09:10:48.902Z,97899.58
2018-05-24T09:13:16.413Z,97896.27
2018-05-24T09:15:43.873Z,97899.41
2018-05-24T09:18:12.520Z,97900.59
2018-05-24T09:20:40.005Z,97898.23
2018-05-24T09:23:07.494Z,97895.73
2018-05-24T09:25:35.598Z,97900.44
2018-05-24T09:28:03.164Z,97896.02
2018-05-24T09:30:30.675Z,97897.23
2018-05-24T09:32:58.142Z,97896.14
2018-05-24T09:35:25.648Z,97896.56
2018-05-24T09:37:53.117Z,97893.12
2018-05-24T09:40:20.680Z,97888.23
2018-05-24T09:42:49.579Z,97895.08
2018-05-24T09:45:17.061Z,97887.02
2018-05-24T09:47:44.572Z,97886.86
2018-05-24T09:50:13.068Z,97881.07
2018-05-24T09:52:40.556Z,97876.14
2018-05-24T09:55:08.126Z,97879.64
2018-05-24T09:57:35.576Z,97875.08
2018-05-24T10:00:03.111Z,97874.74
2018-05-24T10:02:30.693Z,97873.38
2018-05-24T10:04:58.283Z,97878.94
2018-05-24T10:07:25.756Z,97880.94
2018-05-24T10:09:53.946Z,97874.54
2018-05-24T10:12:22.414Z,97875.64
2018-05-24T10:14:49.879Z,97873.55
2018-05-24T10:17:17.452Z,97878.45
2018-05-24T10:19:44.901Z,97882.89
2018-05-24T10:22:12.539Z,97879.70
2018-05-24T10:24:40.041Z,97875.27
2018-05-24T10:27:07.672Z,97876.90
2018-05-24T10:29:35.179Z,97870.97
2018-05-24T10:32:02.828Z,97869.73
2018-05-24T10:34:30.504Z,97864.92
2018-05-24T10:36:59.057Z,97857.63
2018-05-24T10:39:26.825Z,97857.80
2018-05-24T10:44:26.597Z,97852.17
2018-05-24T10:46:54.081Z,97850.88
2018-05-24T10:49:21.624Z,97848.36
2018-05-24T10:51:49.607Z,97843.52
2018-05-24T10:54:17.073Z,97845.22
2018-05-24T10:56:44.719Z,97839.18
2018-05-24T10:59:15.655Z,97831.70
2018-05-24T11:01:47.216Z,97833.98
2018-05-24T11:04:15.197Z,97825.38
2018-05-24T11:06:42.746Z,97816.66
2018-05-24T11:09:12.747Z,97814.61
2018-05-24T11:11:40.370Z,97812.87
2018-05-24T11:14:07.900Z,97809.11
2018-05-24T11:16:35.999Z,97813.11
2018-05-24T11:19:04.313Z,97806.58
2018-05-24T11:21:31.877Z,97807.55
2018-05-24T11:24:00.151Z,97809.58
2018-05-24T11:26:27.921Z,97806.39
2018-05-24T11:28:55.533Z,97800.43
2018-05-24T11:31:23.398Z,97793.44
2018-05-24T11:33:52.224Z,97793.45
2018-05-24T11:36:19.776Z,97791.48
2018-05-24T11:38:47.271Z,97792.66
2018-05-24T11:41:16.499Z,97784.00
2018-05-24T11:43:44.329Z,97775.73
2018-05-24T11:46:12.519Z,97781.28
2018-05-24T11:48:40.751Z,97775.34
2018-05-24T11:51:08.233Z,97773.77
2018-05-24T11:53:36.144Z,97781.82
2018-05-24T11:56:03.659Z,97785.80
2018-05-24T11:58:31.116Z,97782.81
2018-05-24T12:00:58.693Z,97781.66
2018-05-24T12:03:27.175Z,97786.19
2018-05-24T12:05:54.990Z,97791.11
2018-05-24T12:08:23.909Z,97785.78
2018-05-24T12:10:51.720Z,97782.05
2018-05-24T12:13:19.680Z,97782.61
2018-05-24T12:15:47.909Z,97776.88
2018-05-24T12:18:16.145Z,97772.69
2018-05-24T12:20:43.701Z,97769.24
2018-05-24T12:23:11.307Z,97763.67
2018-05-24T12:25:42.970Z,97752.41
2018-05-24T12:28:11.915Z,97761.62
2018-05-24T12:30:40.561Z,97762.08
2018-05-24T12:33:08.098Z,97759.05
2018-05-24T12:35:35.780Z,97762.91
2018-05-24T12:38:04.115Z,97763.30
2018-05-24T12:40:31.722Z,97755.39
2018-05-24T12:42:59.520Z,97759.80
2018-05-24T12:45:27.935Z,97759.84
2018-05-24T12:47:55.778Z,97757.75
2018-05-24T12:50:23.296Z,97752.30
2018-05-24T12:52:50.937Z,97756.09
2018-05-24T12:55:18.649Z,97751.09
2018-05-24T12:57:46.193Z,97743.73
2018-05-24T13:00:14.495Z,97741.58
2018-05-24T13:02:42.800Z,97724.80
2018-05-24T13:05:10.300Z,97719.28
2018-05-24T13:07:37.807Z,97715.36
2018-05-24T13:10:05.270Z,97712.95
2018-05-24T13:12:32.745Z,97708.90
2018-05-24T13:15:00.237Z,97708.20
2018-05-24T13:17:29.541Z,97715.13
2018-05-24T13:19:57.524Z,97708.56
2018-05-24T13:22:25.491Z,97715.36
2018-05-24T13:24:53.642Z,97717.83
2018-05-24T13:27:21.112Z,97726.68
2018-05-24T13:29:48.697Z,97724.62
2018-05-24T13:32:16.276Z,97730.00
2018-05-24T13:34:45.147Z,97724.55
2018-05-24T13:37:12.995Z,97723.60
2018-05-24T13:39:40.560Z,97729.27
2018-05-24T13:42:08.175Z,97734.17
2018-05-24T13:44:37.427Z,97730.71
2018-05-24T13:47:05.065Z,97728.24
2018-05-24T13:49:32.852Z,97718.77
2018-05-24T13:52:00.362Z,97715.09
2018-05-24T13:54:28.617Z,97715.27
2018-05-24T13:56:56.912Z,97714.58
2018-05-24T13:59:25.143Z,97713.38
2018-05-24T14:01:52.733Z,97717.38
2018-05-24T14:04:20.254Z,97714.27
2018-05-24T14:06:48.241Z,97708.56
2018-05-24T14:09:17.502Z,97710.52
2018-05-24T14:11:46.147Z,97707.48
2018-05-24T14:16:47.955Z,97693.39
2018-05-24T14:19:15.842Z,97692.78
2018-05-24T14:21:45.250Z,97686.58
2018-05-24T14:24:13.261Z,97699.95
2018-05-24T14:26:41.317Z,97713.45
2018-05-24T14:29:08.800Z,97732.86
2018-05-24T14:31:36.420Z,97742.70
2018-05-24T14:34:04.746Z,97756.94
2018-05-24T14:36:34.913Z,97766.31
2018-05-24T14:39:02.988Z,97782.47
2018-05-24T14:41:31.725Z,97800.00
2018-05-24T14:44:00.678Z,97828.73
2018-05-24T14:46:28.991Z,97841.51
2018-05-24T14:48:59.497Z,97855.58
2018-05-24T14:51:28.100Z,97838.30
2018-05-24T14:53:59.249Z,97871.94
2018-05-24T14:56:28.443Z,97833.63
2018-05-24T14:58:56.061Z,97828.91
2018-05-24T15:01:23.533Z,97819.04
2018-05-24T15:03:51.074Z,97796.97
2018-05-24T15:06:18.695Z,97789.64
2018-05-24T15:08:46.202Z,97784.56
2018-05-24T15:11:14.087Z,97784.95
2018-05-24T15:13:50.748Z,97784.09
2018-05-24T15:16:18.234Z,97782.00
2018-05-24T15:18:46.219Z,97776.83
2018-05-24T15:21:13.859Z,97781.52
2018-05-24T15:23:41.354Z,97781.20
2018-05-24T15:26:09.143Z,97782.87
2018-05-24T15:28:36.753Z,97780.91
2018-05-24T15:31:04.252Z,97779.82
2018-05-24T15:33:33.053Z,97774.08
2018-05-24T15:36:00.592Z,97773.74
2018-05-24T15:38:28.375Z,97772.07
2018-05-24T15:40:56.007Z,97762.24
2018-05-24T15:43:23.823Z,97769.70
2018-05-24T15:45:51.701Z,97772.20
2018-05-24T15:48:19.234Z,97767.72
2018-05-24T15:52:57.134Z,97774.20
2018-05-24T15:55:25.110Z,97775.22
2018-05-24T15:57:52.599Z,97779.26
2018-05-24T16:00:21.493Z,97785.98
2018-05-24T16:02:50.170Z,97782.63
2018-05-24T16:05:18.664Z,97773.14
2018-05-24T16:07:46.156Z,97783.50
2018-05-24T16:10:13.603Z,97781.66
2018-05-24T16:12:41.240Z,97785.48
2018-05-24T16:15:09.694Z,97784.06
2018-05-24T16:17:37.236Z,97784.67
2018-05-24T16:20:04.726Z,97785.47
2018-05-24T16:22:33.202Z,97787.17
2018-05-24T16:25:01.554Z,97787.46
2018-05-24T16:27:29.910Z,97789.41
2018-05-24T16:29:57.380Z,97775.77
2018-05-24T16:32:24.953Z,97773.02
2018-05-24T16:34:52.849Z,97774.38
2018-05-24T16:37:20.749Z,97771.05
2018-05-24T16:39:48.691Z,97773.75
2018-05-24T16:42:16.262Z,97767.95
2018-05-24T16:44:43.843Z,97775.66
2018-05-24T16:47:11.366Z,97773.45
2018-05-24T16:52:13.012Z,97779.02
2018-05-24T16:54:41.121Z,97777.18
2018-05-24T16:57:08.622Z,97777.72
2018-05-24T16:59:36.140Z,97768.52
2018-05-24T17:02:03.644Z,97761.36
2018-05-24T17:04:31.146Z,97758.23
2018-05-24T17:06:59.727Z,97756.73
2018-05-24T17:09:28.419Z,97761.73
2018-05-24T17:11:55.994Z,97758.96
2018-05-24T17:14:25.172Z,97754.02
2018-05-24T17:16:54.196Z,97755.41
2018-05-24T17:19:21.678Z,97766.38
2018-05-24T17:21:50.267Z,97767.13
2018-05-24T17:24:19.788Z,97765.92
2018-05-24T17:26:47.765Z,97765.00
2018-05-24T17:29:15.335Z,97767.03
2018-05-24T17:31:43.969Z,97770.84
2018-05-24T17:34:11.441Z,97774.94
2018-05-24T17:36:38.942Z,97776.51
2018-05-24T17:39:07.263Z,97774.28
2018-05-24T17:41:35.278Z,97775.14
2018-05-24T17:44:03.014Z,97774.45
2018-05-24T17:46:30.872Z,97775.72
2018-05-24T17:48:58.356Z,97782.80
2018-05-24T17:51:26.221Z,97790.01
2018-05-24T17:53:55.473Z,97786.51
2018-05-24T17:56:23.019Z,97790.87
2018-05-24T17:58:50.556Z,97796.09
2018-05-24T18:01:18.383Z,97801.30
2018-05-24T18:03:46.492Z,97804.35
2018-05-24T18:06:14.054Z,97803.05
2018-05-24T18:08:41.936Z,97803.73
2018-05-24T18:14:02.212Z,97807.17
2018-05-24T18:16:33.775Z,97807.98
2018-05-24T18:19:36.197Z,97813.54
2018-05-24T18:22:04.125Z,97821.09
2018-05-24T18:27:47.452Z,97812.93
2018-05-24T18:55:49.215Z,97795.90
2018-05-24T18:58:42.920Z,97797.78
2018-05-24T19:01:24.253Z,97792.25
2018-05-24T19:03:51.727Z,97797.19
2018-05-24T19:06:27.704Z,97799.48
2018-05-24T19:18:41.229Z,97813.40
2018-05-24T19:21:37.785Z,97823.50
2018-05-24T19:24:05.362Z,97822.17
2018-05-24T19:29:45.251Z,97832.05
2018-05-24T19:32:22.215Z,97834.82
2018-05-24T19:34:51.860Z,97839.30
2018-05-24T19:37:24.894Z,97837.77
2018-05-24T19:43:01.655Z,97845.80
2018-05-24T19:45:29.565Z,97844.38
2018-05-24T19:47:57.045Z,97839.73
2018-05-24T19:50:24.644Z,97844.67
2018-05-24T19:52:52.126Z,97854.77
2018-05-24T19:55:19.856Z,97861.41
2018-05-24T19:57:47.398Z,97865.88
2018-05-24T20:00:15.792Z,97867.14
2018-05-24T20:02:43.235Z,97870.72
2018-05-24T20:05:10.763Z,97877.46
2018-05-24T20:07:38.517Z,97876.99
2018-05-24T20:10:06.054Z,97877.26
2018-05-24T20:12:33.529Z,97885.13
2018-05-24T20:15:01.054Z,97883.44
2018-05-24T20:17:28.511Z,97886.09
2018-05-24T20:19:56.102Z,97886.72
2018-05-24T20:22:23.587Z,97884.50
2018-05-24T20:24:51.815Z,97897.80
2018-05-24T20:27:19.730Z,97896.67
2018-05-24T20:29:47.214Z,97897.16
2018-05-24T20:32:15.564Z,97890.36
2018-05-24T20:34:43.050Z,97891.81
2018-05-24T20:37:10.536Z,97899.88
2018-05-24T20:39:40.493Z,97899.52
2018-05-24T20:42:07.990Z,97899.54
2018-05-24T20:44:35.491Z,97894.72
2018-05-24T20:47:03.284Z,97883.00
2018-05-24T20:49:30.789Z,97891.94
2018-05-24T20:51:58.282Z,97896.02
2018-05-24T20:54:26.735Z,97894.25
2018-05-24T20:56:54.358Z,97894.72
2018-05-24T20:59:21.850Z,97897.70
2018-05-24T21:01:51.181Z,97895.73
2018-05-24T21:04:18.940Z,97901.64
2018-05-24T21:06:46.415Z,97901.42
2018-05-24T21:09:13.884Z,97894.77
2018-05-24T21:11:41.776Z,97897.42
2018-05-24T21:14:09.285Z,97891.77
2018-05-24T21:16:37.060Z,97893.67
2018-05-24T21:19:04.613Z,97884.81
2018-05-24T21:21:32.898Z,97881.29
2018-05-24T21:24:00.405Z,97880.89
2018-05-24T21:26:27.884Z,97880.66
2018-05-24T21:28:55.686Z,97888.64
2018-05-24T21:31:23.153Z,97885.95
2018-05-24T21:33:50.760Z,97884.75
2018-05-24T21:36:18.561Z,97891.87
2018-05-24T21:38:46.079Z,97886.64
2018-05-24T21:41:13.633Z,97884.19
2018-05-24T21:43:41.089Z,97883.72
2018-05-24T21:46:08.567Z,97880.91
2018-05-24T21:48:36.048Z,97885.23
2018-05-24T21:51:03.647Z,97885.72
2018-05-24T21:53:31.298Z,97886.52
2018-05-24T21:55:59.244Z,97886.77
2018-05-24T21:58:29.370Z,97881.58
2018-05-24T22:00:56.894Z,97881.41
2018-05-24T22:03:24.661Z,97884.06
2018-05-24T22:05:52.147Z,97883.54
2018-05-24T22:08:19.623Z,97887.62
2018-05-24T22:10:47.176Z,97891.37
2018-05-24T22:13:16.075Z,97893.21
2018-05-24T22:15:43.582Z,97897.37
2018-05-24T22:18:11.087Z,97890.43
2018-05-24T22:20:40.143Z,97888.67
2018-05-24T22:23:08.491Z,97892.11
2018-05-24T22:25:36.719Z,97894.03
2018-05-24T22:28:04.162Z,97898.19
2018-05-24T22:30:31.954Z,97899.55
2018-05-24T22:32:59.438Z,97898.39
2018-05-24T22:35:27.909Z,97889.78
2018-05-24T22:37:56.022Z,97890.16
2018-05-24T22:40:23.482Z,97896.42
2018-05-24T22:42:51.255Z,97898.58
2018-05-24T22:45:18.757Z,97894.36
2018-05-24T22:47:46.217Z,97899.47
2018-05-24T22:50:13.715Z,97909.89
2018-05-24T22:52:41.522Z,97911.65
2018-05-24T22:55:09.045Z,97913.09
2018-05-24T22:57:37.612Z,97909.52
2018-05-24T23:00:05.089Z,97909.45
2018-05-24T23:02:32.556Z,97911.68
2018-05-24T23:05:00.144Z,97909.12
2018-05-24T23:07:27.581Z,97902.50
2018-05-24T23:09:55.101Z,97904.17
2018-05-24T23:12:23.399Z,97895.02
2018-05-24T23:14:50.959Z,97890.00
2018-05-24T23:17:18.414Z,97889.12
2018-05-24T23:19:46.186Z,97882.81
2018-05-24T23:22:25.325Z,97890.39
2018-05-24T23:24:52.769Z,97889.11
2018-05-24T23:27:20.246Z,97891.53
2018-05-24T23:29:47.964Z,97881.93
2018-05-24T23:32:15.749Z,97884.19
2018-05-24T23:34:43.205Z,97888.81
2018-05-24T23:37:11.000Z,97887.38
2018-05-24T23:39:38.478Z,97890.97
2018-05-24T23:42:06.003Z,97902.69
2018-05-24T23:44:33.516Z,97898.54
2018-05-24T23:47:01.320Z,97899.66
2018-05-24T23:49:30.011Z,97902.84
2018-05-24T23:51:57.576Z,97908.02
2018-05-24T23:54:25.768Z,97910.42
2018-05-24T23:56:53.546Z,97912.03
2018-05-24T23:59:21.064Z,97917.77
